Babaevo, Russia
Current Conditions -  °F | °C
As of 8:00 PM on Thursday 18 Dec 2014 (Local Time) from ULWC Reporting Station
Broken Clouds Broken Clouds  
Wind Chill: -4°   Ceiling: 700
Heat Index:   Visibility: 6mi
Dew Point: -1°   Wind: 9mph
Humidity: 93%   Direction: 260°W
Pressure: 29.56"   Gusts: NA
Location:  59.4°N, 35.93°E
Report Text: ULWC 181700Z 26004MPS 9999 BKN007 BKN016CB 00/M01 Q1001 TEMPO1000 SHSN BKN003 RMK QBB210 QFE741/0988 SC039
Loading
Personal Weather Stations






























Interactive Weather Map New forecast layout! Learn more

10-Day Weather Forecast

Advertisements
Track Severe Weather on mobile